Wilmington, OH (45177)

2:33 AM EDT on August 31, 2016 (GMT -0400)
2.2 N Wilmington | | Change Station

Elev 1053 ft 39.47 °N, 83.84 °W | Updated 14 minutes ago

Clear
Clear
70.0 °F
Feels Like 70.0 °F
N
0.0
Wind Variable Wind from NNE
Gusts 0.0 mph

Today
High -- | Low -- °F
--% Chance of Precip.
Yesterday
High -- | Low -- °F
Precip. -- in
Pressure 30.02 in
Visibility 10.0 miles
Clouds Clear
Dew Point 68 °F
Humidity 93%
Rainfall 0.00 in
Snow Depth Not available.
7:03 AM 8:07 PM
Waning Crescent, 1% visible
METAR KILN 310554Z AUTO 01004KT 10SM CLR 22/21 A3006 RMK AO2 SLP165 T02170206 10250 20189 58009
Pressure 30.02 in
Visibility 10.0 miles
Clouds Clear
Dew Point 68 °F
Humidity 93%
Rainfall 0.00 in
Snow Depth Not available.
7:03 AM 8:07 PM
Waning Crescent, 1% visible
METAR KILN 310554Z AUTO 01004KT 10SM CLR 22/21 A3006 RMK AO2 SLP165 T02170206 10250 20189 58009

10-Day Weather Forecast

Almanac

Astronomy

Aug. 31, 2016 Rise Set
Actual Time
Civil Twilight
Nautical Twilight
Astronomical Twilight
Moon
Length of Visible Light
Length of Day
Tomorrow will be .
, % of the Moon is Illuminated

Today's Extremes

State Highs State Lows

Community

WunderPhotos

Upload Photos

1,936,040 photos uploaded!

WunderBlog® & News

Nearby

Air Quality

  Air Quality AQ Index Pollutant
Not available.

Snow Depth

Station Depth Elevation

Earthquake Activity

City Distance Mag. Time & Date
Minimum magnitude displayed is 2.5.

Coastal Water Temperatures

Place Temperature

Stations

Nearby Weather Stations

Station Location Temp. Windchill Dew Point Humidity Wind Precip. Elev Updated Type
                   

Watches & Warnings

There are currently no watches in effect.